Keysville, GA (30811)

6:34 PM EST on March 01, 2015 (GMT -0500)
Heatwole Family Allen Rd.,North Burke County | Change Station
CLOSE
Current Station
Personal Weather Station
Location: Hephzibah, GA
Elevation: 364 ft
Nearby Weather Stations
Active Advisory: Flood Warning

Elev 364 ft 33.19 °N, 82.02 °W | Updated 56 seconds ago

Overcast
Overcast
44.1 °F
Feels Like 44 °F
N
0.0
Wind Variable Wind from North
Gusts 0.0 mph

Today
High -- | Low -- °F
--% Chance of Precip.
Yesterday
High -- | Low -- °F
Precip. -- in
6:57 AM 6:25 PM
Waxing Gibbous, 88% visible
Pressure 30.42 in
Visibility 3.0 miles
Clouds Overcast 600 ft
Windchill 44 °F
Dew Point 43 °F
Humidity 95%
Rainfall 0.18 in
Snow Depth Not available.
UV 0 out of 12
Pollen 3.40 out of 12
Air Quality Not available.
Flu Activity Not available.
METAR KAGS 012253Z 33006KT 3SM BR OVC006 06/04 A3042 RMK AO2 RAB20E40 SLP301 P0003 T00560044

More Conditions Fewer Conditions

Pressure 30.42 in
Visibility 3.0 miles
Clouds Overcast 600 ft
Windchill 44 °F
Dew Point 43 °F
Humidity 95%
Rainfall 0.18 in
Snow Depth Not available.
UV 0 out of 12
Pollen 3.40 out of 12
Air Quality Not available.
Flu Activity Not available.
METAR KAGS 012253Z 33006KT 3SM BR OVC006 06/04 A3042 RMK AO2 RAB20E40 SLP301 P0003 T00560044

More Conditions Fewer Conditions

10-Day Weather Forecast

Almanac

Astronomy

Mar. 01, 2015 Rise Set
Actual Time
Civil Twilight
Nautical Twilight
Astronomical Twilight
Moon
Length of Visible Light
Length of Day
Tomorrow will be .
, % of the Moon is Illuminated

Today's Extremes

State Highs State Lows

Community

WunderPhotos

Upload Photos

1,801,610 photos uploaded!

WunderBlogs® & News

Nearby

Air Quality

  Air Quality AQ Index Pollutant
Not available.

Snow Depth

Station Depth Elevation

Earthquake Activity

City Distance Mag. Time & Date
Minimum magnitude displayed is 2.5.

Coastal Water Temperatures

Place Temperature

Nearby Weather Stations

Flood Warning
Statement as of 10:06 AM EST on March 01, 2015

The Flood Warning continues for
the Ogeechee river near Midville.
* At 9 am Sunday the stage was 6.1 feet.
* Flood stage is 6.0 feet.
* Forecast, the river is expected to drop below flood stage early
Monday morning.
* At 6.0 feet, the access Road into the River Bluff in Midville begins
to flood. The lower portion of Johnson Road near Herndon also
becomes covered.


Lat... Lon 3279 8231 3286 8227 3284 8211 3281 8193
          3275 8198 3276 8212